sensor_id;sensor_type;location;lat;lon;timestamp;pressure;altitude;pressure_sealevel;temperature;humidity
6343;BME280;3204;42.698;23.298;2022-12-11T00:02:02;92869.97;;;11.70;100.00
6343;BME280;3204;42.698;23.298;2022-12-11T00:04:29;92863.06;;;11.76;100.00
6343;BME280;3204;42.698;23.298;2022-12-11T00:06:55;92886.03;;;11.82;100.00
6343;BME280;3204;42.698;23.298;2022-12-11T00:09:20;92875.16;;;11.82;100.00
6343;BME280;3204;42.698;23.298;2022-12-11T00:11:46;92847.56;;;11.76;100.00
6343;BME280;3204;42.698;23.298;2022-12-11T00:14:12;92866.03;;;11.93;100.00
6343;BME280;3204;42.698;23.298;2022-12-11T00:16:38;92834.03;;;11.80;100.00
6343;BME280;3204;42.698;23.298;2022-12-11T00:19:04;92880.47;;;12.01;100.00
6343;BME280;3204;42.698;23.298;2022-12-11T00:21:30;92847.25;;;11.81;100.00
6343;BME280;3204;42.698;23.298;2022-12-11T00:23:56;92872.72;;;11.73;100.00
6343;BME280;3204;42.698;23.298;2022-12-11T00:26:21;92864.06;;;11.90;100.00
6343;BME280;3204;42.698;23.298;2022-12-11T00:28:50;92866.91;;;11.71;100.00
6343;BME280;3204;42.698;23.298;2022-12-11T00:31:17;92897.97;;;11.74;100.00
6343;BME280;3204;42.698;23.298;2022-12-11T00:33:44;92858.31;;;11.69;100.00
6343;BME280;3204;42.698;23.298;2022-12-11T00:36:15;92846.84;;;11.83;100.00
6343;BME280;3204;42.698;23.298;2022-12-11T00:38:41;92868.44;;;11.72;100.00
6343;BME280;3204;42.698;23.298;2022-12-11T00:41:07;92847.09;;;11.71;100.00
6343;BME280;3204;42.698;23.298;2022-12-11T00:43:32;92811.16;;;11.81;100.00
6343;BME280;3204;42.698;23.298;2022-12-11T00:45:58;92826.28;;;11.82;100.00
6343;BME280;3204;42.698;23.298;2022-12-11T00:48:24;92865.66;;;11.95;100.00
6343;BME280;3204;42.698;23.298;2022-12-11T00:50:49;92850.28;;;11.76;100.00
6343;BME280;3204;42.698;23.298;2022-12-11T00:53:15;92854.09;;;11.72;100.00
6343;BME280;3204;42.698;23.298;2022-12-11T00:55:41;92876.53;;;11.69;100.00
6343;BME280;3204;42.698;23.298;2022-12-11T00:58:07;92820.91;;;11.85;100.00
6343;BME280;3204;42.698;23.298;2022-12-11T01:00:32;92828.56;;;11.76;100.00
6343;BME280;3204;42.698;23.298;2022-12-11T01:02:58;92843.13;;;11.65;100.00
6343;BME280;3204;42.698;23.298;2022-12-11T01:05:24;92833.00;;;11.62;100.00
6343;BME280;3204;42.698;23.298;2022-12-11T01:07:49;92844.69;;;11.66;100.00
6343;BME280;3204;42.698;23.298;2022-12-11T01:10:15;92842.38;;;11.68;100.00
6343;BME280;3204;42.698;23.298;2022-12-11T01:13:24;92864.19;;;11.71;100.00
6343;BME280;3204;42.698;23.298;2022-12-11T01:15:49;92884.06;;;11.79;100.00
6343;BME280;3204;42.698;23.298;2022-12-11T01:18:15;92861.22;;;11.83;100.00
6343;BME280;3204;42.698;23.298;2022-12-11T01:20:41;92835.91;;;11.76;100.00
6343;BME280;3204;42.698;23.298;2022-12-11T01:23:08;92872.69;;;11.70;100.00
6343;BME280;3204;42.698;23.298;2022-12-11T01:25:35;92901.34;;;11.67;100.00
6343;BME280;3204;42.698;23.298;2022-12-11T01:28:02;92842.06;;;11.73;100.00
6343;BME280;3204;42.698;23.298;2022-12-11T01:30:28;92860.31;;;11.72;100.00
6343;BME280;3204;42.698;23.298;2022-12-11T01:32:53;92825.00;;;11.72;100.00
6343;BME280;3204;42.698;23.298;2022-12-11T01:35:19;92788.69;;;11.58;100.00
6343;BME280;3204;42.698;23.298;2022-12-11T01:37:45;92825.53;;;11.59;100.00
6343;BME280;3204;42.698;23.298;2022-12-11T01:40:16;92841.84;;;11.59;100.00
6343;BME280;3204;42.698;23.298;2022-12-11T01:42:42;92828.72;;;11.61;100.00
6343;BME280;3204;42.698;23.298;2022-12-11T01:47:45;92816.38;;;11.93;100.00
6343;BME280;3204;42.698;23.298;2022-12-11T01:50:12;92820.78;;;11.75;100.00
6343;BME280;3204;42.698;23.298;2022-12-11T01:52:38;92825.78;;;11.73;100.00
6343;BME280;3204;42.698;23.298;2022-12-11T01:55:06;92821.50;;;11.72;100.00
6343;BME280;3204;42.698;23.298;2022-12-11T01:57:33;92806.88;;;11.80;100.00
6343;BME280;3204;42.698;23.298;2022-12-11T01:59:59;92802.69;;;11.86;100.00
6343;BME280;3204;42.698;23.298;2022-12-11T02:02:27;92824.44;;;11.89;100.00
6343;BME280;3204;42.698;23.298;2022-12-11T02:04:53;92840.88;;;12.00;100.00
6343;BME280;3204;42.698;23.298;2022-12-11T02:07:19;92839.53;;;12.16;100.00
6343;BME280;3204;42.698;23.298;2022-12-11T02:09:46;92851.28;;;12.24;100.00
6343;BME280;3204;42.698;23.298;2022-12-11T02:14:58;92829.34;;;12.76;96.66
6343;BME280;3204;42.698;23.298;2022-12-11T02:18:06;92825.44;;;12.73;96.13
6343;BME280;3204;42.698;23.298;2022-12-11T02:20:54;92785.81;;;12.76;97.00
6343;BME280;3204;42.698;23.298;2022-12-11T02:31:46;92783.84;;;13.13;93.77
6343;BME280;3204;42.698;23.298;2022-12-11T02:34:23;92769.44;;;13.12;93.72
6343;BME280;3204;42.698;23.298;2022-12-11T02:36:56;92781.16;;;13.20;93.24
6343;BME280;3204;42.698;23.298;2022-12-11T02:39:25;92780.78;;;13.21;92.50
6343;BME280;3204;42.698;23.298;2022-12-11T02:41:52;92788.84;;;13.11;92.53
6343;BME280;3204;42.698;23.298;2022-12-11T02:44:23;92767.94;;;13.18;92.67
6343;BME280;3204;42.698;23.298;2022-12-11T02:46:50;92799.84;;;13.21;91.50
6343;BME280;3204;42.698;23.298;2022-12-11T02:49:17;92796.38;;;13.24;91.14
6343;BME280;3204;42.698;23.298;2022-12-11T02:51:44;92783.47;;;13.14;91.88
6343;BME280;3204;42.698;23.298;2022-12-11T02:54:15;92785.94;;;13.33;91.40
6343;BME280;3204;42.698;23.298;2022-12-11T02:56:48;92789.81;;;13.32;90.98
6343;BME280;3204;42.698;23.298;2022-12-11T02:59:36;92807.16;;;13.14;91.61
6343;BME280;3204;42.698;23.298;2022-12-11T03:02:03;92789.84;;;13.36;90.72
6343;BME280;3204;42.698;23.298;2022-12-11T03:04:29;92794.53;;;13.39;89.81
6343;BME280;3204;42.698;23.298;2022-12-11T03:06:58;92787.16;;;13.43;89.72
6343;BME280;3204;42.698;23.298;2022-12-11T03:09:27;92792.69;;;13.50;88.07
6343;BME280;3204;42.698;23.298;2022-12-11T03:11:53;92765.38;;;13.39;88.43
6343;BME280;3204;42.698;23.298;2022-12-11T03:14:18;92755.28;;;13.43;88.98
6343;BME280;3204;42.698;23.298;2022-12-11T03:19:33;92779.41;;;13.45;89.30
6343;BME280;3204;42.698;23.298;2022-12-11T03:22:11;92770.41;;;13.37;89.72
6343;BME280;3204;42.698;23.298;2022-12-11T03:24:43;92767.34;;;13.46;89.77
6343;BME280;3204;42.698;23.298;2022-12-11T03:27:15;92767.72;;;13.44;90.35
6343;BME280;3204;42.698;23.298;2022-12-11T03:29:51;92770.47;;;13.48;89.49
6343;BME280;3204;42.698;23.298;2022-12-11T03:32:20;92770.81;;;13.43;89.76
6343;BME280;3204;42.698;23.298;2022-12-11T03:34:59;92781.81;;;13.57;88.50
6343;BME280;3204;42.698;23.298;2022-12-11T03:37:28;92780.44;;;13.87;85.88
6343;BME280;3204;42.698;23.298;2022-12-11T03:39:58;92798.41;;;13.99;85.23
6343;BME280;3204;42.698;23.298;2022-12-11T03:42:26;92806.66;;;14.16;84.17
6343;BME280;3204;42.698;23.298;2022-12-11T03:44:53;92830.72;;;14.00;84.57
6343;BME280;3204;42.698;23.298;2022-12-11T03:47:23;92832.34;;;14.15;83.08
6343;BME280;3204;42.698;23.298;2022-12-11T03:49:50;92834.81;;;14.34;83.62
6343;BME280;3204;42.698;23.298;2022-12-11T03:52:17;92825.41;;;14.25;83.92
6343;BME280;3204;42.698;23.298;2022-12-11T03:54:45;92827.44;;;14.38;84.36
6343;BME280;3204;42.698;23.298;2022-12-11T03:57:15;92839.09;;;14.39;84.63
6343;BME280;3204;42.698;23.298;2022-12-11T03:59:42;92841.00;;;14.24;85.11
6343;BME280;3204;42.698;23.298;2022-12-11T04:02:07;92854.25;;;14.29;85.70
6343;BME280;3204;42.698;23.298;2022-12-11T04:04:37;92861.31;;;14.37;85.42
6343;BME280;3204;42.698;23.298;2022-12-11T04:07:03;92859.38;;;14.41;85.45
6343;BME280;3204;42.698;23.298;2022-12-11T04:09:29;92871.44;;;14.37;85.92
6343;BME280;3204;42.698;23.298;2022-12-11T04:11:54;92865.06;;;14.19;86.72
6343;BME280;3204;42.698;23.298;2022-12-11T04:14:20;92880.97;;;14.06;87.42
6343;BME280;3204;42.698;23.298;2022-12-11T04:17:04;92879.81;;;14.04;88.28
6343;BME280;3204;42.698;23.298;2022-12-11T04:19:29;92884.53;;;14.17;88.04
6343;BME280;3204;42.698;23.298;2022-12-11T04:22:15;92884.66;;;14.31;86.29
6343;BME280;3204;42.698;23.298;2022-12-11T04:25:04;92898.41;;;14.56;85.21
6343;BME280;3204;42.698;23.298;2022-12-11T04:27:31;92886.84;;;14.90;89.76
6343;BME280;3204;42.698;23.298;2022-12-11T04:30:18;92895.50;;;15.17;93.72
6343;BME280;3204;42.698;23.298;2022-12-11T04:32:44;92910.41;;;15.47;85.10
6343;BME280;3204;42.698;23.298;2022-12-11T04:35:10;92908.44;;;15.62;89.23
6343;BME280;3204;42.698;23.298;2022-12-11T04:37:37;92913.94;;;15.51;80.43
6343;BME280;3204;42.698;23.298;2022-12-11T04:40:08;92925.22;;;15.36;80.76
6343;BME280;3204;42.698;23.298;2022-12-11T04:42:34;92918.50;;;15.16;81.93
6343;BME280;3204;42.698;23.298;2022-12-11T04:44:59;92936.03;;;15.01;80.36
6343;BME280;3204;42.698;23.298;2022-12-11T04:47:25;92935.28;;;15.11;77.64
6343;BME280;3204;42.698;23.298;2022-12-11T04:49:51;92954.50;;;15.46;74.98
6343;BME280;3204;42.698;23.298;2022-12-11T04:52:17;92947.88;;;15.40;73.81
6343;BME280;3204;42.698;23.298;2022-12-11T04:54:43;92944.34;;;15.43;72.82
6343;BME280;3204;42.698;23.298;2022-12-11T04:57:08;92961.56;;;15.54;71.65
6343;BME280;3204;42.698;23.298;2022-12-11T04:59:34;92942.41;;;15.57;70.75
6343;BME280;3204;42.698;23.298;2022-12-11T05:02:00;92927.19;;;15.63;69.50
6343;BME280;3204;42.698;23.298;2022-12-11T05:04:29;92935.00;;;15.65;68.88
6343;BME280;3204;42.698;23.298;2022-12-11T05:06:56;92954.53;;;15.60;68.33
6343;BME280;3204;42.698;23.298;2022-12-11T05:09:21;92910.03;;;15.63;68.73
6343;BME280;3204;42.698;23.298;2022-12-11T05:11:46;92930.34;;;15.69;68.50
6343;BME280;3204;42.698;23.298;2022-12-11T05:14:12;92917.06;;;15.64;68.99
6343;BME280;3204;42.698;23.298;2022-12-11T05:16:38;92890.50;;;15.71;68.23
6343;BME280;3204;42.698;23.298;2022-12-11T05:19:03;92906.13;;;15.71;68.39
6343;BME280;3204;42.698;23.298;2022-12-11T05:21:29;92921.34;;;15.68;68.79
6343;BME280;3204;42.698;23.298;2022-12-11T05:23:54;92923.69;;;15.63;69.36
6343;BME280;3204;42.698;23.298;2022-12-11T05:26:20;92906.50;;;15.69;69.93
6343;BME280;3204;42.698;23.298;2022-12-11T05:28:47;92905.34;;;15.74;70.11
6343;BME280;3204;42.698;23.298;2022-12-11T05:31:16;92917.06;;;15.74;69.67
6343;BME280;3204;42.698;23.298;2022-12-11T05:33:43;92925.63;;;15.52;70.49
6343;BME280;3204;42.698;23.298;2022-12-11T05:36:14;92928.38;;;15.69;69.74
6343;BME280;3204;42.698;23.298;2022-12-11T05:38:40;92922.91;;;15.73;68.68
6343;BME280;3204;42.698;23.298;2022-12-11T05:41:07;92926.44;;;15.66;68.93
6343;BME280;3204;42.698;23.298;2022-12-11T05:43:34;92904.97;;;15.58;70.17
6343;BME280;3204;42.698;23.298;2022-12-11T05:46:08;92904.16;;;16.03;85.95
6343;BME280;3204;42.698;23.298;2022-12-11T05:48:34;92908.03;;;16.33;74.07
6343;BME280;3204;42.698;23.298;2022-12-11T05:51:01;92905.69;;;16.07;70.00
6343;BME280;3204;42.698;23.298;2022-12-11T05:53:27;92917.44;;;16.04;71.25
6343;BME280;3204;42.698;23.298;2022-12-11T05:55:53;92898.31;;;15.83;71.59
6343;BME280;3204;42.698;23.298;2022-12-11T05:58:19;92901.03;;;15.94;69.58
6343;BME280;3204;42.698;23.298;2022-12-11T06:00:45;92886.19;;;15.91;82.25
6343;BME280;3204;42.698;23.298;2022-12-11T06:03:11;92877.72;;;16.93;87.06
6343;BME280;3204;42.698;23.298;2022-12-11T06:05:40;92886.50;;;16.57;72.42
6343;BME280;3204;42.698;23.298;2022-12-11T06:08:06;92900.59;;;16.41;69.70
6343;BME280;3204;42.698;23.298;2022-12-11T06:10:32;92893.97;;;16.21;69.05
6343;BME280;3204;42.698;23.298;2022-12-11T06:12:57;92876.84;;;15.96;71.15
6343;BME280;3204;42.698;23.298;2022-12-11T06:15:23;92897.53;;;15.93;72.80
6343;BME280;3204;42.698;23.298;2022-12-11T06:17:49;92916.66;;;15.83;73.55
6343;BME280;3204;42.698;23.298;2022-12-11T06:20:14;92903.78;;;15.87;70.89
6343;BME280;3204;42.698;23.298;2022-12-11T06:22:40;92909.25;;;15.80;71.53
6343;BME280;3204;42.698;23.298;2022-12-11T06:25:06;92935.03;;;15.75;71.76
6343;BME280;3204;42.698;23.298;2022-12-11T06:27:31;92913.13;;;15.86;67.58
6343;BME280;3204;42.698;23.298;2022-12-11T06:29:57;92930.31;;;15.76;67.24
6343;BME280;3204;42.698;23.298;2022-12-11T06:32:22;92916.66;;;15.86;68.10
6343;BME280;3204;42.698;23.298;2022-12-11T06:34:48;92918.59;;;15.86;68.54
6343;BME280;3204;42.698;23.298;2022-12-11T06:37:13;92911.59;;;15.85;71.69
6343;BME280;3204;42.698;23.298;2022-12-11T06:39:39;92933.44;;;15.71;72.82
6343;BME280;3204;42.698;23.298;2022-12-11T06:42:04;92917.44;;;15.66;73.76
6343;BME280;3204;42.698;23.298;2022-12-11T06:44:30;92913.53;;;15.60;74.59
6343;BME280;3204;42.698;23.298;2022-12-11T06:46:55;92936.56;;;15.52;74.82
6343;BME280;3204;42.698;23.298;2022-12-11T06:49:21;92940.78;;;15.32;75.15
6343;BME280;3204;42.698;23.298;2022-12-11T06:51:46;92940.06;;;15.56;73.32
6343;BME280;3204;42.698;23.298;2022-12-11T06:54:12;92939.66;;;15.43;73.87
6343;BME280;3204;42.698;23.298;2022-12-11T06:56:37;92930.31;;;15.55;69.45
6343;BME280;3204;42.698;23.298;2022-12-11T06:59:03;92929.53;;;15.65;69.51
6343;BME280;3204;42.698;23.298;2022-12-11T07:01:28;92938.13;;;15.81;68.60
6343;BME280;3204;42.698;23.298;2022-12-11T07:03:56;92915.50;;;15.80;70.52
6343;BME280;3204;42.698;23.298;2022-12-11T07:06:22;92944.41;;;15.81;70.69
6343;BME280;3204;42.698;23.298;2022-12-11T07:08:48;92942.03;;;15.83;70.14
6343;BME280;3204;42.698;23.298;2022-12-11T07:11:15;92949.84;;;15.71;70.25
6343;BME280;3204;42.698;23.298;2022-12-11T07:13:41;92951.78;;;15.60;71.12
6343;BME280;3204;42.698;23.298;2022-12-11T07:16:09;92949.84;;;15.71;70.45
6343;BME280;3204;42.698;23.298;2022-12-11T07:18:39;92950.63;;;15.71;70.06
6343;BME280;3204;42.698;23.298;2022-12-11T07:21:06;92963.53;;;15.85;69.57
6343;BME280;3204;42.698;23.298;2022-12-11T07:23:33;92971.72;;;15.85;70.29
6343;BME280;3204;42.698;23.298;2022-12-11T07:26:06;92952.22;;;16.00;68.25
6343;BME280;3204;42.698;23.298;2022-12-11T07:28:33;92956.13;;;15.89;69.72
6343;BME280;3204;42.698;23.298;2022-12-11T07:31:04;92964.31;;;15.99;70.98
6343;BME280;3204;42.698;23.298;2022-12-11T07:33:29;92967.44;;;15.87;72.71
6343;BME280;3204;42.698;23.298;2022-12-11T07:35:55;92967.44;;;15.94;72.68
6343;BME280;3204;42.698;23.298;2022-12-11T07:38:20;92975.63;;;15.91;72.63
6343;BME280;3204;42.698;23.298;2022-12-11T07:40:46;92987.34;;;15.95;74.16
6343;BME280;3204;42.698;23.298;2022-12-11T07:43:11;92982.28;;;15.90;75.42
6343;BME280;3204;42.698;23.298;2022-12-11T07:45:36;92986.59;;;15.94;75.26
6343;BME280;3204;42.698;23.298;2022-12-11T07:48:04;92981.88;;;15.81;75.43
6343;BME280;3204;42.698;23.298;2022-12-11T07:50:30;92994.38;;;15.78;75.13
6343;BME280;3204;42.698;23.298;2022-12-11T07:52:55;92963.91;;;15.66;75.45
6343;BME280;3204;42.698;23.298;2022-12-11T07:55:21;92999.44;;;15.62;76.14
6343;BME280;3204;42.698;23.298;2022-12-11T07:57:46;93008.44;;;15.91;72.60
6343;BME280;3204;42.698;23.298;2022-12-11T08:00:12;93004.53;;;15.78;72.08
6343;BME280;3204;42.698;23.298;2022-12-11T08:02:38;93004.94;;;15.87;70.55
6343;BME280;3204;42.698;23.298;2022-12-11T08:05:03;92980.31;;;16.11;70.28
6343;BME280;3204;42.698;23.298;2022-12-11T08:07:29;92997.13;;;16.03;70.09
6343;BME280;3204;42.698;23.298;2022-12-11T08:09:55;92999.09;;;16.13;71.04
6343;BME280;3204;42.698;23.298;2022-12-11T08:12:20;92986.59;;;16.12;69.35
6343;BME280;3204;42.698;23.298;2022-12-11T08:14:46;93017.06;;;16.14;67.36
6343;BME280;3204;42.698;23.298;2022-12-11T08:17:11;92985.81;;;16.39;66.64
6343;BME280;3204;42.698;23.298;2022-12-11T08:19:37;93001.44;;;16.39;64.29
6343;BME280;3204;42.698;23.298;2022-12-11T08:22:02;93000.25;;;16.47;66.72
6343;BME280;3204;42.698;23.298;2022-12-11T08:24:28;93015.13;;;16.28;68.92
6343;BME280;3204;42.698;23.298;2022-12-11T08:26:53;93024.09;;;16.36;70.08
6343;BME280;3204;42.698;23.298;2022-12-11T08:29:19;93008.50;;;16.51;66.35
6343;BME280;3204;42.698;23.298;2022-12-11T08:31:44;93006.13;;;16.52;66.35
6343;BME280;3204;42.698;23.298;2022-12-11T08:34:10;93011.22;;;16.51;66.25
6343;BME280;3204;42.698;23.298;2022-12-11T08:36:38;92998.31;;;16.48;66.65
6343;BME280;3204;42.698;23.298;2022-12-11T08:39:04;93007.72;;;16.47;67.07
6343;BME280;3204;42.698;23.298;2022-12-11T08:41:29;93009.66;;;16.42;68.08
6343;BME280;3204;42.698;23.298;2022-12-11T08:43:56;93006.13;;;16.42;69.26
6343;BME280;3204;42.698;23.298;2022-12-11T08:46:25;93003.03;;;16.40;70.16
6343;BME280;3204;42.698;23.298;2022-12-11T08:48:51;93006.91;;;16.28;71.04
6343;BME280;3204;42.698;23.298;2022-12-11T08:51:18;92999.09;;;16.20;73.60
6343;BME280;3204;42.698;23.298;2022-12-11T08:53:45;92992.81;;;16.23;74.54
6343;BME280;3204;42.698;23.298;2022-12-11T08:56:15;93002.22;;;16.32;76.45
6343;BME280;3204;42.698;23.298;2022-12-11T08:58:42;92987.38;;;16.16;78.54
6343;BME280;3204;42.698;23.298;2022-12-11T09:01:13;92976.44;;;16.12;80.36
6343;BME280;3204;42.698;23.298;2022-12-11T09:03:39;92975.63;;;16.05;82.02
6343;BME280;3204;42.698;23.298;2022-12-11T09:06:06;92948.28;;;15.84;83.35
6343;BME280;3204;42.698;23.298;2022-12-11T09:08:33;92945.16;;;15.92;80.18
6343;BME280;3204;42.698;23.298;2022-12-11T09:11:06;92953.00;;;16.01;79.42
6343;BME280;3204;42.698;23.298;2022-12-11T09:13:32;92965.88;;;16.07;76.76
6343;BME280;3204;42.698;23.298;2022-12-11T09:15:59;92960.00;;;16.19;73.64
6343;BME280;3204;42.698;23.298;2022-12-11T09:18:24;92971.34;;;16.25;74.27
6343;BME280;3204;42.698;23.298;2022-12-11T09:21:00;92959.22;;;16.33;71.63
6343;BME280;3204;42.698;23.298;2022-12-11T09:23:26;92956.88;;;16.45;70.29
6343;BME280;3204;42.698;23.298;2022-12-11T09:25:51;92956.50;;;16.54;71.04
6343;BME280;3204;42.698;23.298;2022-12-11T09:28:17;92968.59;;;16.67;71.30
6343;BME280;3204;42.698;23.298;2022-12-11T09:30:42;92972.84;;;16.78;70.90
6343;BME280;3204;42.698;23.298;2022-12-11T09:33:08;92961.91;;;16.75;68.49
6343;BME280;3204;42.698;23.298;2022-12-11T09:35:33;92973.59;;;16.83;69.13
6343;BME280;3204;42.698;23.298;2022-12-11T09:37:59;92959.88;;;16.93;67.84
6343;BME280;3204;42.698;23.298;2022-12-11T09:40:24;92958.31;;;16.96;68.18
6343;BME280;3204;42.698;23.298;2022-12-11T09:42:53;92959.06;;;17.03;68.19
6343;BME280;3204;42.698;23.298;2022-12-11T09:45:22;92963.00;;;17.02;67.12
6343;BME280;3204;42.698;23.298;2022-12-11T09:47:51;92959.09;;;16.96;68.35
6343;BME280;3204;42.698;23.298;2022-12-11T09:50:22;92959.06;;;17.10;67.59
6343;BME280;3204;42.698;23.298;2022-12-11T09:55:44;92971.19;;;17.13;68.58
6343;BME280;3204;42.698;23.298;2022-12-11T09:58:27;92961.72;;;17.21;68.44
6343;BME280;3204;42.698;23.298;2022-12-11T10:01:44;92964.47;;;17.24;68.27
6343;BME280;3204;42.698;23.298;2022-12-11T10:04:28;92961.69;;;17.31;68.13
6343;BME280;3204;42.698;23.298;2022-12-11T10:14:49;92966.06;;;17.22;68.38
6343;BME280;3204;42.698;23.298;2022-12-11T10:17:27;92963.66;;;17.27;68.34
6343;BME280;3204;42.698;23.298;2022-12-11T10:20:14;92965.63;;;17.27;67.48
6343;BME280;3204;42.698;23.298;2022-12-11T10:22:42;92966.84;;;17.19;68.27
6343;BME280;3204;42.698;23.298;2022-12-11T10:25:30;92964.13;;;17.15;68.44
6343;BME280;3204;42.698;23.298;2022-12-11T10:27:56;92969.22;;;17.10;68.80
6343;BME280;3204;42.698;23.298;2022-12-11T10:30:28;92956.72;;;17.05;70.01
6343;BME280;3204;42.698;23.298;2022-12-11T10:33:13;92948.91;;;16.97;71.32
6343;BME280;3204;42.698;23.298;2022-12-11T10:35:45;92951.72;;;16.86;72.20
6343;BME280;3204;42.698;23.298;2022-12-11T10:38:14;92952.50;;;16.76;74.05
6343;BME280;3204;42.698;23.298;2022-12-11T10:40:44;92951.38;;;16.56;74.90
6343;BME280;3204;42.698;23.298;2022-12-11T10:43:10;92949.41;;;16.67;73.15
6343;BME280;3204;42.698;23.298;2022-12-11T10:45:36;92947.84;;;16.66;73.81
6343;BME280;3204;42.698;23.298;2022-12-11T10:48:04;92946.25;;;16.76;74.20
6343;BME280;3204;42.698;23.298;2022-12-11T10:50:30;92934.50;;;16.78;74.83
6343;BME280;3204;42.698;23.298;2022-12-11T10:52:55;92927.84;;;16.83;75.16
6343;BME280;3204;42.698;23.298;2022-12-11T10:55:24;92929.00;;;16.89;73.98
6343;BME280;3204;42.698;23.298;2022-12-11T10:57:57;92924.66;;;17.02;74.16
6343;BME280;3204;42.698;23.298;2022-12-11T11:00:39;92921.41;;;17.21;72.99
6343;BME280;3204;42.698;23.298;2022-12-11T11:03:23;92917.41;;;17.36;72.26
6343;BME280;3204;42.698;23.298;2022-12-11T11:06:21;92917.06;;;17.27;72.37
6343;BME280;3204;42.698;23.298;2022-12-11T11:08:54;92918.97;;;17.44;69.48
6343;BME280;3204;42.698;23.298;2022-12-11T11:11:24;92921.28;;;17.53;69.83
6343;BME280;3204;42.698;23.298;2022-12-11T11:13:50;92920.09;;;17.50;70.14
6343;BME280;3204;42.698;23.298;2022-12-11T11:16:19;92926.78;;;17.49;70.86
6343;BME280;3204;42.698;23.298;2022-12-11T11:18:56;92918.91;;;17.55;71.57
6343;BME280;3204;42.698;23.298;2022-12-11T11:21:24;92914.28;;;17.38;71.66
6343;BME280;3204;42.698;23.298;2022-12-11T11:23:52;92905.66;;;17.43;72.37
6343;BME280;3204;42.698;23.298;2022-12-11T11:26:19;92911.22;;;17.25;73.04
6343;BME280;3204;42.698;23.298;2022-12-11T11:28:52;92906.53;;;17.22;73.42
6343;BME280;3204;42.698;23.298;2022-12-11T11:31:21;92906.16;;;17.20;73.29
6343;BME280;3204;42.698;23.298;2022-12-11T11:34:04;92901.09;;;17.19;73.86
6343;BME280;3204;42.698;23.298;2022-12-11T11:36:35;92903.81;;;17.22;72.89
6343;BME280;3204;42.698;23.298;2022-12-11T11:39:12;92901.84;;;17.23;72.65
6343;BME280;3204;42.698;23.298;2022-12-11T11:41:59;92915.09;;;17.31;70.59
6343;BME280;3204;42.698;23.298;2022-12-11T11:44:32;92900.91;;;17.50;69.21
6343;BME280;3204;42.698;23.298;2022-12-11T11:47:05;92902.97;;;17.39;68.00
6343;BME280;3204;42.698;23.298;2022-12-11T11:52:20;92897.06;;;17.37;69.90
6343;BME280;3204;42.698;23.298;2022-12-11T11:57:26;92901.84;;;17.19;70.99
6343;BME280;3204;42.698;23.298;2022-12-11T11:59:58;92883.09;;;17.18;71.41
6343;BME280;3204;42.698;23.298;2022-12-11T12:02:33;92888.19;;;17.16;71.76
6343;BME280;3204;42.698;23.298;2022-12-11T12:05:01;92892.53;;;17.06;72.31
6343;BME280;3204;42.698;23.298;2022-12-11T12:07:47;92888.69;;;16.93;72.86
6343;BME280;3204;42.698;23.298;2022-12-11T12:10:26;92884.03;;;16.87;73.37
6343;BME280;3204;42.698;23.298;2022-12-11T12:13:03;92890.34;;;16.66;73.58
6343;BME280;3204;42.698;23.298;2022-12-11T12:21:15;92916.16;;;15.18;76.10
6343;BME280;3204;42.698;23.298;2022-12-11T12:26:30;92928.09;;;14.68;76.32
6343;BME280;3204;42.698;23.298;2022-12-11T12:39:54;92953.88;;;12.60;80.25
6343;BME280;3204;42.698;23.298;2022-12-11T12:42:36;92961.78;;;12.13;80.62
6343;BME280;3204;42.698;23.298;2022-12-11T12:45:30;92971.19;;;11.48;82.80
6343;BME280;3204;42.698;23.298;2022-12-11T12:47:59;92965.31;;;11.23;85.25
6343;BME280;3204;42.698;23.298;2022-12-11T12:50:31;92966.47;;;11.00;86.93
6343;BME280;3204;42.698;23.298;2022-12-11T12:53:03;92971.06;;;10.77;87.62
6343;BME280;3204;42.698;23.298;2022-12-11T12:55:29;92960.63;;;10.41;88.37
6343;BME280;3204;42.698;23.298;2022-12-11T12:58:21;92982.97;;;10.34;88.12
6343;BME280;3204;42.698;23.298;2022-12-11T13:00:48;92991.41;;;10.14;89.24
6343;BME280;3204;42.698;23.298;2022-12-11T13:03:19;92978.16;;;9.78;90.33
6343;BME280;3204;42.698;23.298;2022-12-11T13:05:55;92993.91;;;9.57;91.49
6343;BME280;3204;42.698;23.298;2022-12-11T13:08:26;92996.09;;;9.67;91.79
6343;BME280;3204;42.698;23.298;2022-12-11T13:11:00;92997.81;;;9.28;92.29
6343;BME280;3204;42.698;23.298;2022-12-11T13:14:22;92990.41;;;9.25;93.29
6343;BME280;3204;42.698;23.298;2022-12-11T13:17:04;93025.91;;;9.24;93.42
6343;BME280;3204;42.698;23.298;2022-12-11T13:19:34;93016.84;;;9.16;93.32
6343;BME280;3204;42.698;23.298;2022-12-11T13:22:20;93040.94;;;8.94;93.69
6343;BME280;3204;42.698;23.298;2022-12-11T13:27:25;93047.31;;;8.74;94.05
6343;BME280;3204;42.698;23.298;2022-12-11T13:29:51;93054.03;;;8.64;92.78
6343;BME280;3204;42.698;23.298;2022-12-11T13:32:29;93053.69;;;8.54;93.19
6343;BME280;3204;42.698;23.298;2022-12-11T13:34:58;93058.38;;;8.17;93.95
6343;BME280;3204;42.698;23.298;2022-12-11T13:37:36;93062.53;;;8.15;94.92
6343;BME280;3204;42.698;23.298;2022-12-11T13:40:06;93072.44;;;8.11;95.88
6343;BME280;3204;42.698;23.298;2022-12-11T13:42:37;93092.91;;;8.12;94.04
6343;BME280;3204;42.698;23.298;2022-12-11T13:45:14;93095.72;;;8.03;94.92
6343;BME280;3204;42.698;23.298;2022-12-11T13:47:42;93115.63;;;8.11;93.50
6343;BME280;3204;42.698;23.298;2022-12-11T13:50:35;93111.59;;;8.05;93.62
6343;BME280;3204;42.698;23.298;2022-12-11T13:53:02;93125.75;;;8.02;93.72
6343;BME280;3204;42.698;23.298;2022-12-11T13:55:32;93125.63;;;7.86;93.46
6343;BME280;3204;42.698;23.298;2022-12-11T13:57:58;93129.88;;;7.75;94.14
6343;BME280;3204;42.698;23.298;2022-12-11T14:00:26;93143.72;;;7.74;94.52
6343;BME280;3204;42.698;23.298;2022-12-11T14:02:54;93139.44;;;7.85;94.29
6343;BME280;3204;42.698;23.298;2022-12-11T14:05:21;93143.03;;;7.65;94.75
6343;BME280;3204;42.698;23.298;2022-12-11T14:10:26;93146.63;;;7.69;94.72
6343;BME280;3204;42.698;23.298;2022-12-11T14:12:53;93135.94;;;7.60;94.01
6343;BME280;3204;42.698;23.298;2022-12-11T14:15:20;93159.09;;;7.61;94.59
6343;BME280;3204;42.698;23.298;2022-12-11T14:17:47;93147.88;;;7.71;94.15
6343;BME280;3204;42.698;23.298;2022-12-11T14:20:17;93174.63;;;7.64;94.12